sensor_id;sensor_type;location;lat;lon;timestamp;P1;durP1;ratioP1;P2;durP2;ratioP2
15697;SDS011;7949;48.726;9.102;2022-08-16T00:00:23;4.97;;;2.97;;
15697;SDS011;7949;48.726;9.102;2022-08-16T00:02:52;5.53;;;2.93;;
15697;SDS011;7949;48.726;9.102;2022-08-16T00:05:20;7.53;;;3.30;;
15697;SDS011;7949;48.726;9.102;2022-08-16T00:07:49;3.80;;;3.03;;
15697;SDS011;7949;48.726;9.102;2022-08-16T00:10:16;6.57;;;3.43;;
15697;SDS011;7949;48.726;9.102;2022-08-16T00:12:44;4.87;;;2.90;;
15697;SDS011;7949;48.726;9.102;2022-08-16T00:15:13;5.03;;;3.17;;
15697;SDS011;7949;48.726;9.102;2022-08-16T00:17:44;4.07;;;3.40;;
15697;SDS011;7949;48.726;9.102;2022-08-16T00:20:12;6.70;;;3.57;;
15697;SDS011;7949;48.726;9.102;2022-08-16T00:22:40;3.87;;;3.47;;
15697;SDS011;7949;48.726;9.102;2022-08-16T00:25:10;6.40;;;3.27;;
15697;SDS011;7949;48.726;9.102;2022-08-16T00:27:39;5.33;;;3.13;;
15697;SDS011;7949;48.726;9.102;2022-08-16T00:30:07;6.83;;;3.23;;
15697;SDS011;7949;48.726;9.102;2022-08-16T00:32:36;8.20;;;3.40;;
15697;SDS011;7949;48.726;9.102;2022-08-16T00:35:05;5.90;;;3.27;;
15697;SDS011;7949;48.726;9.102;2022-08-16T00:37:34;6.03;;;2.87;;
15697;SDS011;7949;48.726;9.102;2022-08-16T00:40:01;6.50;;;3.60;;
15697;SDS011;7949;48.726;9.102;2022-08-16T00:42:30;6.00;;;3.50;;
15697;SDS011;7949;48.726;9.102;2022-08-16T00:44:59;6.90;;;3.73;;
15697;SDS011;7949;48.726;9.102;2022-08-16T00:47:32;4.13;;;3.50;;
15697;SDS011;7949;48.726;9.102;2022-08-16T00:50:00;5.47;;;3.20;;
15697;SDS011;7949;48.726;9.102;2022-08-16T00:52:29;5.00;;;3.27;;
15697;SDS011;7949;48.726;9.102;2022-08-16T00:54:56;4.77;;;3.40;;
15697;SDS011;7949;48.726;9.102;2022-08-16T00:57:23;4.93;;;3.80;;
15697;SDS011;7949;48.726;9.102;2022-08-16T00:59:51;5.43;;;3.57;;
15697;SDS011;7949;48.726;9.102;2022-08-16T01:02:18;5.03;;;3.40;;
15697;SDS011;7949;48.726;9.102;2022-08-16T01:04:45;5.83;;;3.50;;
15697;SDS011;7949;48.726;9.102;2022-08-16T01:07:12;5.23;;;2.97;;
15697;SDS011;7949;48.726;9.102;2022-08-16T01:09:40;6.20;;;3.67;;
15697;SDS011;7949;48.726;9.102;2022-08-16T01:12:07;5.73;;;4.00;;
15697;SDS011;7949;48.726;9.102;2022-08-16T01:14:38;6.27;;;3.87;;
15697;SDS011;7949;48.726;9.102;2022-08-16T01:17:09;5.93;;;3.37;;
15697;SDS011;7949;48.726;9.102;2022-08-16T01:19:39;4.70;;;3.13;;
15697;SDS011;7949;48.726;9.102;2022-08-16T01:22:09;4.37;;;3.47;;
15697;SDS011;7949;48.726;9.102;2022-08-16T01:24:44;5.80;;;3.67;;
15697;SDS011;7949;48.726;9.102;2022-08-16T01:27:14;5.17;;;3.07;;
15697;SDS011;7949;48.726;9.102;2022-08-16T01:29:45;6.87;;;3.40;;
15697;SDS011;7949;48.726;9.102;2022-08-16T01:32:16;6.97;;;3.40;;
15697;SDS011;7949;48.726;9.102;2022-08-16T01:34:43;4.07;;;3.20;;
15697;SDS011;7949;48.726;9.102;2022-08-16T01:37:11;4.90;;;3.63;;
15697;SDS011;7949;48.726;9.102;2022-08-16T01:39:39;4.43;;;3.80;;
15697;SDS011;7949;48.726;9.102;2022-08-16T01:42:08;5.33;;;3.70;;
15697;SDS011;7949;48.726;9.102;2022-08-16T01:44:36;5.73;;;3.70;;
15697;SDS011;7949;48.726;9.102;2022-08-16T01:47:04;4.87;;;3.33;;
15697;SDS011;7949;48.726;9.102;2022-08-16T01:49:32;5.33;;;3.77;;
15697;SDS011;7949;48.726;9.102;2022-08-16T01:52:02;6.57;;;4.13;;
15697;SDS011;7949;48.726;9.102;2022-08-16T01:54:30;7.60;;;3.53;;
15697;SDS011;7949;48.726;9.102;2022-08-16T01:56:58;4.30;;;3.47;;
15697;SDS011;7949;48.726;9.102;2022-08-16T01:59:27;6.67;;;3.77;;
15697;SDS011;7949;48.726;9.102;2022-08-16T02:01:55;4.43;;;3.40;;
15697;SDS011;7949;48.726;9.102;2022-08-16T02:04:22;5.17;;;3.43;;
15697;SDS011;7949;48.726;9.102;2022-08-16T02:06:50;5.77;;;3.50;;
15697;SDS011;7949;48.726;9.102;2022-08-16T02:09:18;7.37;;;3.70;;
15697;SDS011;7949;48.726;9.102;2022-08-16T02:11:48;6.07;;;3.50;;
15697;SDS011;7949;48.726;9.102;2022-08-16T02:14:16;9.27;;;4.20;;
15697;SDS011;7949;48.726;9.102;2022-08-16T02:16:45;4.33;;;3.57;;
15697;SDS011;7949;48.726;9.102;2022-08-16T02:19:12;5.80;;;3.80;;
15697;SDS011;7949;48.726;9.102;2022-08-16T02:21:41;6.03;;;3.47;;
15697;SDS011;7949;48.726;9.102;2022-08-16T02:24:10;4.63;;;3.13;;
15697;SDS011;7949;48.726;9.102;2022-08-16T02:26:36;4.83;;;3.43;;
15697;SDS011;7949;48.726;9.102;2022-08-16T02:29:03;6.73;;;3.30;;
15697;SDS011;7949;48.726;9.102;2022-08-16T02:31:30;4.27;;;3.23;;
15697;SDS011;7949;48.726;9.102;2022-08-16T02:33:59;6.13;;;3.47;;
15697;SDS011;7949;48.726;9.102;2022-08-16T02:36:26;3.97;;;3.13;;
15697;SDS011;7949;48.726;9.102;2022-08-16T02:38:53;4.73;;;3.50;;
15697;SDS011;7949;48.726;9.102;2022-08-16T02:41:20;4.60;;;3.40;;
15697;SDS011;7949;48.726;9.102;2022-08-16T02:43:47;7.73;;;3.50;;
15697;SDS011;7949;48.726;9.102;2022-08-16T02:46:14;6.97;;;3.23;;
15697;SDS011;7949;48.726;9.102;2022-08-16T02:48:41;6.50;;;3.47;;
15697;SDS011;7949;48.726;9.102;2022-08-16T02:51:10;5.13;;;3.50;;
15697;SDS011;7949;48.726;9.102;2022-08-16T02:53:39;4.17;;;3.40;;
15697;SDS011;7949;48.726;9.102;2022-08-16T02:56:12;5.07;;;3.47;;
15697;SDS011;7949;48.726;9.102;2022-08-16T02:58:41;4.17;;;3.30;;
15697;SDS011;7949;48.726;9.102;2022-08-16T03:01:09;4.50;;;3.13;;
15697;SDS011;7949;48.726;9.102;2022-08-16T03:03:40;4.60;;;3.53;;
15697;SDS011;7949;48.726;9.102;2022-08-16T03:06:10;6.53;;;3.60;;
15697;SDS011;7949;48.726;9.102;2022-08-16T03:08:38;5.57;;;3.20;;
15697;SDS011;7949;48.726;9.102;2022-08-16T03:11:05;5.27;;;3.97;;
15697;SDS011;7949;48.726;9.102;2022-08-16T03:13:32;4.57;;;3.97;;
15697;SDS011;7949;48.726;9.102;2022-08-16T03:15:59;6.07;;;4.10;;
15697;SDS011;7949;48.726;9.102;2022-08-16T03:18:26;7.80;;;3.90;;
15697;SDS011;7949;48.726;9.102;2022-08-16T03:20:52;5.23;;;4.03;;
15697;SDS011;7949;48.726;9.102;2022-08-16T03:23:21;4.63;;;3.37;;
15697;SDS011;7949;48.726;9.102;2022-08-16T03:25:48;5.33;;;3.83;;
15697;SDS011;7949;48.726;9.102;2022-08-16T03:28:15;7.30;;;4.30;;
15697;SDS011;7949;48.726;9.102;2022-08-16T03:30:42;6.27;;;3.90;;
15697;SDS011;7949;48.726;9.102;2022-08-16T03:33:10;6.33;;;3.77;;
15697;SDS011;7949;48.726;9.102;2022-08-16T03:35:37;4.40;;;4.00;;
15697;SDS011;7949;48.726;9.102;2022-08-16T03:38:07;4.67;;;3.60;;
15697;SDS011;7949;48.726;9.102;2022-08-16T03:40:40;4.97;;;4.10;;
15697;SDS011;7949;48.726;9.102;2022-08-16T03:43:09;5.60;;;3.67;;
15697;SDS011;7949;48.726;9.102;2022-08-16T03:45:40;6.23;;;4.00;;
15697;SDS011;7949;48.726;9.102;2022-08-16T03:48:10;5.27;;;4.10;;
15697;SDS011;7949;48.726;9.102;2022-08-16T03:50:38;9.40;;;3.93;;
15697;SDS011;7949;48.726;9.102;2022-08-16T03:53:06;4.50;;;3.43;;
15697;SDS011;7949;48.726;9.102;2022-08-16T03:55:40;6.97;;;3.80;;
15697;SDS011;7949;48.726;9.102;2022-08-16T03:58:11;5.93;;;3.80;;
15697;SDS011;7949;48.726;9.102;2022-08-16T04:00:41;7.97;;;4.40;;
15697;SDS011;7949;48.726;9.102;2022-08-16T04:03:11;6.23;;;3.80;;
15697;SDS011;7949;48.726;9.102;2022-08-16T04:05:45;7.47;;;4.37;;
15697;SDS011;7949;48.726;9.102;2022-08-16T04:08:16;6.63;;;4.50;;
15697;SDS011;7949;48.726;9.102;2022-08-16T04:10:54;8.27;;;4.20;;
15697;SDS011;7949;48.726;9.102;2022-08-16T04:14:00;5.87;;;4.03;;
15697;SDS011;7949;48.726;9.102;2022-08-16T04:16:28;10.53;;;4.23;;
15697;SDS011;7949;48.726;9.102;2022-08-16T04:18:57;8.50;;;4.10;;
15697;SDS011;7949;48.726;9.102;2022-08-16T04:21:24;8.30;;;4.40;;
15697;SDS011;7949;48.726;9.102;2022-08-16T04:23:52;4.23;;;3.73;;
15697;SDS011;7949;48.726;9.102;2022-08-16T04:26:21;4.93;;;3.67;;
15697;SDS011;7949;48.726;9.102;2022-08-16T04:28:48;5.63;;;3.83;;
15697;SDS011;7949;48.726;9.102;2022-08-16T04:31:16;5.93;;;3.80;;
15697;SDS011;7949;48.726;9.102;2022-08-16T04:33:43;6.13;;;4.00;;
15697;SDS011;7949;48.726;9.102;2022-08-16T04:36:10;5.70;;;3.90;;
15697;SDS011;7949;48.726;9.102;2022-08-16T04:38:38;6.83;;;3.77;;
15697;SDS011;7949;48.726;9.102;2022-08-16T04:41:05;6.00;;;3.67;;
15697;SDS011;7949;48.726;9.102;2022-08-16T04:43:33;6.47;;;3.50;;
15697;SDS011;7949;48.726;9.102;2022-08-16T04:46:02;7.73;;;3.87;;
15697;SDS011;7949;48.726;9.102;2022-08-16T04:48:31;6.20;;;3.63;;
15697;SDS011;7949;48.726;9.102;2022-08-16T04:51:00;5.40;;;3.80;;
15697;SDS011;7949;48.726;9.102;2022-08-16T04:53:28;5.03;;;3.60;;
15697;SDS011;7949;48.726;9.102;2022-08-16T04:55:55;6.30;;;3.83;;
15697;SDS011;7949;48.726;9.102;2022-08-16T04:58:24;6.93;;;3.97;;
15697;SDS011;7949;48.726;9.102;2022-08-16T05:00:54;6.73;;;3.90;;
15697;SDS011;7949;48.726;9.102;2022-08-16T05:03:25;7.63;;;3.60;;
15697;SDS011;7949;48.726;9.102;2022-08-16T05:05:54;6.83;;;3.87;;
15697;SDS011;7949;48.726;9.102;2022-08-16T05:08:23;5.80;;;4.13;;
15697;SDS011;7949;48.726;9.102;2022-08-16T05:10:52;5.83;;;3.77;;
15697;SDS011;7949;48.726;9.102;2022-08-16T05:13:22;6.50;;;3.73;;
15697;SDS011;7949;48.726;9.102;2022-08-16T05:15:50;6.30;;;3.43;;
15697;SDS011;7949;48.726;9.102;2022-08-16T05:18:20;5.73;;;3.97;;
15697;SDS011;7949;48.726;9.102;2022-08-16T05:20:49;3.83;;;3.43;;
15697;SDS011;7949;48.726;9.102;2022-08-16T05:23:19;8.13;;;3.83;;
15697;SDS011;7949;48.726;9.102;2022-08-16T05:25:48;5.63;;;3.73;;
15697;SDS011;7949;48.726;9.102;2022-08-16T05:28:16;4.00;;;3.30;;
15697;SDS011;7949;48.726;9.102;2022-08-16T05:30:45;6.77;;;3.63;;
15697;SDS011;7949;48.726;9.102;2022-08-16T05:33:15;4.70;;;3.40;;
15697;SDS011;7949;48.726;9.102;2022-08-16T05:35:47;5.87;;;4.17;;
15697;SDS011;7949;48.726;9.102;2022-08-16T05:38:16;5.37;;;3.33;;
15697;SDS011;7949;48.726;9.102;2022-08-16T05:40:45;5.30;;;3.83;;
15697;SDS011;7949;48.726;9.102;2022-08-16T05:43:12;3.97;;;3.20;;
15697;SDS011;7949;48.726;9.102;2022-08-16T05:45:39;4.93;;;3.33;;
15697;SDS011;7949;48.726;9.102;2022-08-16T05:48:06;4.33;;;3.93;;
15697;SDS011;7949;48.726;9.102;2022-08-16T05:50:32;5.63;;;3.60;;
15697;SDS011;7949;48.726;9.102;2022-08-16T05:53:01;6.73;;;3.47;;
15697;SDS011;7949;48.726;9.102;2022-08-16T05:55:28;8.20;;;3.50;;
15697;SDS011;7949;48.726;9.102;2022-08-16T05:57:54;6.20;;;3.73;;
15697;SDS011;7949;48.726;9.102;2022-08-16T06:00:21;3.53;;;3.00;;
15697;SDS011;7949;48.726;9.102;2022-08-16T06:02:49;5.73;;;3.40;;
15697;SDS011;7949;48.726;9.102;2022-08-16T06:05:16;6.07;;;3.77;;
15697;SDS011;7949;48.726;9.102;2022-08-16T06:07:44;4.40;;;3.70;;
15697;SDS011;7949;48.726;9.102;2022-08-16T06:10:12;5.37;;;3.57;;
15697;SDS011;7949;48.726;9.102;2022-08-16T06:12:39;7.03;;;3.57;;
15697;SDS011;7949;48.726;9.102;2022-08-16T06:15:08;8.07;;;3.97;;
15697;SDS011;7949;48.726;9.102;2022-08-16T06:17:36;6.00;;;3.50;;
15697;SDS011;7949;48.726;9.102;2022-08-16T06:20:04;6.43;;;3.90;;
15697;SDS011;7949;48.726;9.102;2022-08-16T06:22:31;6.00;;;3.80;;
15697;SDS011;7949;48.726;9.102;2022-08-16T06:25:00;4.37;;;3.43;;
15697;SDS011;7949;48.726;9.102;2022-08-16T06:27:28;4.37;;;3.77;;
15697;SDS011;7949;48.726;9.102;2022-08-16T06:29:55;6.63;;;3.40;;
15697;SDS011;7949;48.726;9.102;2022-08-16T06:32:22;5.70;;;3.50;;
15697;SDS011;7949;48.726;9.102;2022-08-16T06:34:49;5.23;;;3.83;;
15697;SDS011;7949;48.726;9.102;2022-08-16T06:37:15;4.30;;;3.70;;
15697;SDS011;7949;48.726;9.102;2022-08-16T06:39:42;5.30;;;3.40;;
15697;SDS011;7949;48.726;9.102;2022-08-16T06:42:09;9.33;;;3.77;;
15697;SDS011;7949;48.726;9.102;2022-08-16T06:44:37;6.73;;;3.70;;
15697;SDS011;7949;48.726;9.102;2022-08-16T06:47:04;5.43;;;3.73;;
15697;SDS011;7949;48.726;9.102;2022-08-16T06:49:31;6.53;;;3.70;;
15697;SDS011;7949;48.726;9.102;2022-08-16T06:52:18;5.90;;;3.67;;
15697;SDS011;7949;48.726;9.102;2022-08-16T06:54:45;10.60;;;4.00;;
15697;SDS011;7949;48.726;9.102;2022-08-16T06:57:12;7.10;;;3.77;;
15697;SDS011;7949;48.726;9.102;2022-08-16T06:59:40;5.20;;;3.33;;
15697;SDS011;7949;48.726;9.102;2022-08-16T07:02:07;4.57;;;3.67;;
15697;SDS011;7949;48.726;9.102;2022-08-16T07:04:34;7.00;;;3.87;;
15697;SDS011;7949;48.726;9.102;2022-08-16T07:07:02;5.53;;;3.37;;
15697;SDS011;7949;48.726;9.102;2022-08-16T07:09:32;5.57;;;3.70;;
15697;SDS011;7949;48.726;9.102;2022-08-16T07:11:59;5.40;;;3.80;;
15697;SDS011;7949;48.726;9.102;2022-08-16T07:14:26;5.53;;;3.77;;
15697;SDS011;7949;48.726;9.102;2022-08-16T07:16:54;6.27;;;4.27;;
15697;SDS011;7949;48.726;9.102;2022-08-16T07:19:22;7.23;;;4.10;;
15697;SDS011;7949;48.726;9.102;2022-08-16T07:21:49;5.10;;;4.10;;
15697;SDS011;7949;48.726;9.102;2022-08-16T07:24:16;5.73;;;3.93;;
15697;SDS011;7949;48.726;9.102;2022-08-16T07:26:44;10.13;;;4.70;;
15697;SDS011;7949;48.726;9.102;2022-08-16T07:29:11;6.27;;;4.10;;
15697;SDS011;7949;48.726;9.102;2022-08-16T07:31:38;7.37;;;3.80;;
15697;SDS011;7949;48.726;9.102;2022-08-16T07:34:05;6.97;;;4.13;;
15697;SDS011;7949;48.726;9.102;2022-08-16T07:36:32;9.57;;;4.73;;
15697;SDS011;7949;48.726;9.102;2022-08-16T07:38:59;5.60;;;3.90;;
15697;SDS011;7949;48.726;9.102;2022-08-16T07:41:26;10.10;;;4.10;;
15697;SDS011;7949;48.726;9.102;2022-08-16T07:43:54;6.57;;;4.03;;
15697;SDS011;7949;48.726;9.102;2022-08-16T07:46:21;7.80;;;4.20;;
15697;SDS011;7949;48.726;9.102;2022-08-16T07:48:48;8.17;;;4.57;;
15697;SDS011;7949;48.726;9.102;2022-08-16T07:51:15;9.67;;;4.70;;
15697;SDS011;7949;48.726;9.102;2022-08-16T07:53:42;9.10;;;4.10;;
15697;SDS011;7949;48.726;9.102;2022-08-16T07:56:09;7.90;;;4.10;;
15697;SDS011;7949;48.726;9.102;2022-08-16T07:58:36;7.27;;;4.23;;
15697;SDS011;7949;48.726;9.102;2022-08-16T08:01:05;4.57;;;4.00;;
15697;SDS011;7949;48.726;9.102;2022-08-16T08:03:32;9.30;;;4.30;;
15697;SDS011;7949;48.726;9.102;2022-08-16T08:05:59;9.80;;;4.87;;
15697;SDS011;7949;48.726;9.102;2022-08-16T08:08:27;6.60;;;4.73;;
15697;SDS011;7949;48.726;9.102;2022-08-16T08:10:54;5.67;;;4.60;;
15697;SDS011;7949;48.726;9.102;2022-08-16T08:13:22;8.30;;;4.43;;
15697;SDS011;7949;48.726;9.102;2022-08-16T08:15:49;8.43;;;4.63;;
15697;SDS011;7949;48.726;9.102;2022-08-16T08:18:17;4.93;;;4.27;;
15697;SDS011;7949;48.726;9.102;2022-08-16T08:20:45;7.23;;;4.23;;
15697;SDS011;7949;48.726;9.102;2022-08-16T08:23:12;7.40;;;4.30;;
15697;SDS011;7949;48.726;9.102;2022-08-16T08:25:40;6.80;;;4.50;;
15697;SDS011;7949;48.726;9.102;2022-08-16T08:28:09;8.33;;;4.20;;
15697;SDS011;7949;48.726;9.102;2022-08-16T08:30:37;7.13;;;4.13;;
15697;SDS011;7949;48.726;9.102;2022-08-16T08:33:04;6.63;;;4.10;;
15697;SDS011;7949;48.726;9.102;2022-08-16T08:35:33;6.53;;;3.53;;
15697;SDS011;7949;48.726;9.102;2022-08-16T08:38:01;6.80;;;3.90;;
15697;SDS011;7949;48.726;9.102;2022-08-16T08:40:32;8.07;;;4.43;;
15697;SDS011;7949;48.726;9.102;2022-08-16T08:43:00;7.97;;;3.93;;
15697;SDS011;7949;48.726;9.102;2022-08-16T08:45:27;9.47;;;3.87;;
15697;SDS011;7949;48.726;9.102;2022-08-16T08:47:55;7.57;;;4.20;;
15697;SDS011;7949;48.726;9.102;2022-08-16T08:50:22;5.63;;;4.00;;
15697;SDS011;7949;48.726;9.102;2022-08-16T08:52:51;5.97;;;4.37;;
15697;SDS011;7949;48.726;9.102;2022-08-16T08:55:19;8.47;;;4.07;;
15697;SDS011;7949;48.726;9.102;2022-08-16T08:57:47;8.53;;;4.40;;
15697;SDS011;7949;48.726;9.102;2022-08-16T09:00:16;7.43;;;4.10;;
15697;SDS011;7949;48.726;9.102;2022-08-16T09:02:44;6.17;;;4.30;;
15697;SDS011;7949;48.726;9.102;2022-08-16T09:05:12;5.67;;;4.07;;
15697;SDS011;7949;48.726;9.102;2022-08-16T09:07:39;6.33;;;3.97;;
15697;SDS011;7949;48.726;9.102;2022-08-16T09:10:08;5.03;;;3.50;;
15697;SDS011;7949;48.726;9.102;2022-08-16T09:12:36;5.93;;;4.37;;
15697;SDS011;7949;48.726;9.102;2022-08-16T09:15:04;9.10;;;3.90;;
15697;SDS011;7949;48.726;9.102;2022-08-16T09:17:32;7.40;;;4.07;;
15697;SDS011;7949;48.726;9.102;2022-08-16T09:19:59;10.27;;;4.53;;
15697;SDS011;7949;48.726;9.102;2022-08-16T09:22:26;6.40;;;3.43;;
15697;SDS011;7949;48.726;9.102;2022-08-16T09:24:54;7.43;;;3.93;;
15697;SDS011;7949;48.726;9.102;2022-08-16T09:27:23;8.60;;;3.57;;
15697;SDS011;7949;48.726;9.102;2022-08-16T09:29:50;9.40;;;3.87;;
15697;SDS011;7949;48.726;9.102;2022-08-16T09:32:17;6.10;;;3.33;;
15697;SDS011;7949;48.726;9.102;2022-08-16T09:34:44;5.90;;;3.50;;
15697;SDS011;7949;48.726;9.102;2022-08-16T09:37:11;6.57;;;3.42;;
15697;SDS011;7949;48.726;9.102;2022-08-16T09:39:40;5.78;;;3.58;;
15697;SDS011;7949;48.726;9.102;2022-08-16T09:42:07;5.88;;;3.65;;
15697;SDS011;7949;48.726;9.102;2022-08-16T09:44:35;5.72;;;3.30;;
15697;SDS011;7949;48.726;9.102;2022-08-16T09:47:02;6.57;;;3.67;;
15697;SDS011;7949;48.726;9.102;2022-08-16T09:49:30;4.53;;;3.33;;
15697;SDS011;7949;48.726;9.102;2022-08-16T09:51:57;4.57;;;3.10;;
15697;SDS011;7949;48.726;9.102;2022-08-16T09:54:24;4.15;;;3.00;;
15697;SDS011;7949;48.726;9.102;2022-08-16T09:56:52;5.10;;;3.27;;
15697;SDS011;7949;48.726;9.102;2022-08-16T09:59:20;4.78;;;2.97;;
15697;SDS011;7949;48.726;9.102;2022-08-16T10:01:50;5.07;;;2.97;;
15697;SDS011;7949;48.726;9.102;2022-08-16T10:04:18;7.32;;;3.00;;
15697;SDS011;7949;48.726;9.102;2022-08-16T10:06:46;4.20;;;3.50;;
15697;SDS011;7949;48.726;9.102;2022-08-16T10:09:13;5.15;;;3.05;;
15697;SDS011;7949;48.726;9.102;2022-08-16T10:11:40;5.13;;;3.05;;
15697;SDS011;7949;48.726;9.102;2022-08-16T10:14:25;4.25;;;2.97;;
15697;SDS011;7949;48.726;9.102;2022-08-16T10:16:55;4.03;;;3.10;;
15697;SDS011;7949;48.726;9.102;2022-08-16T10:19:23;5.00;;;3.22;;
15697;SDS011;7949;48.726;9.102;2022-08-16T10:21:50;4.63;;;3.38;;
15697;SDS011;7949;48.726;9.102;2022-08-16T10:24:18;4.65;;;2.90;;
15697;SDS011;7949;48.726;9.102;2022-08-16T10:26:45;7.15;;;3.13;;
15697;SDS011;7949;48.726;9.102;2022-08-16T10:29:12;4.53;;;3.10;;
15697;SDS011;7949;48.726;9.102;2022-08-16T10:31:40;5.75;;;3.30;;
15697;SDS011;7949;48.726;9.102;2022-08-16T10:34:08;6.70;;;3.08;;
15697;SDS011;7949;48.726;9.102;2022-08-16T10:36:35;5.50;;;2.97;;
15697;SDS011;7949;48.726;9.102;2022-08-16T10:39:03;2.90;;;2.60;;
15697;SDS011;7949;48.726;9.102;2022-08-16T10:41:30;5.25;;;3.17;;
15697;SDS011;7949;48.726;9.102;2022-08-16T10:43:57;5.90;;;3.20;;
15697;SDS011;7949;48.726;9.102;2022-08-16T10:46:24;6.17;;;2.90;;
15697;SDS011;7949;48.726;9.102;2022-08-16T10:48:51;8.27;;;3.75;;
15697;SDS011;7949;48.726;9.102;2022-08-16T10:51:20;4.15;;;3.40;;
15697;SDS011;7949;48.726;9.102;2022-08-16T10:53:47;4.78;;;3.55;;
15697;SDS011;7949;48.726;9.102;2022-08-16T10:56:14;5.30;;;3.60;;
15697;SDS011;7949;48.726;9.102;2022-08-16T10:58:41;10.10;;;3.70;;
15697;SDS011;7949;48.726;9.102;2022-08-16T11:01:09;6.10;;;3.40;;
15697;SDS011;7949;48.726;9.102;2022-08-16T11:03:36;7.07;;;3.70;;
15697;SDS011;7949;48.726;9.102;2022-08-16T11:06:03;5.57;;;3.53;;
15697;SDS011;7949;48.726;9.102;2022-08-16T11:08:32;7.15;;;4.00;;
15697;SDS011;7949;48.726;9.102;2022-08-16T11:11:00;5.93;;;3.88;;
15697;SDS011;7949;48.726;9.102;2022-08-16T11:13:26;6.18;;;4.18;;
15697;SDS011;7949;48.726;9.102;2022-08-16T11:15:54;6.82;;;3.70;;
15697;SDS011;7949;48.726;9.102;2022-08-16T11:18:25;7.25;;;3.65;;
15697;SDS011;7949;48.726;9.102;2022-08-16T11:20:54;5.05;;;3.50;;
15697;SDS011;7949;48.726;9.102;2022-08-16T11:23:23;5.68;;;3.55;;
15697;SDS011;7949;48.726;9.102;2022-08-16T11:25:52;5.18;;;3.20;;
15697;SDS011;7949;48.726;9.102;2022-08-16T11:28:20;5.43;;;3.08;;
15697;SDS011;7949;48.726;9.102;2022-08-16T11:30:47;5.82;;;3.40;;
15697;SDS011;7949;48.726;9.102;2022-08-16T11:33:14;6.00;;;3.78;;
15697;SDS011;7949;48.726;9.102;2022-08-16T11:35:41;5.25;;;3.83;;
15697;SDS011;7949;48.726;9.102;2022-08-16T11:38:10;8.63;;;3.60;;
15697;SDS011;7949;48.726;9.102;2022-08-16T11:40:40;5.60;;;3.10;;
15697;SDS011;7949;48.726;9.102;2022-08-16T11:43:12;7.07;;;3.33;;
15697;SDS011;7949;48.726;9.102;2022-08-16T11:45:40;9.50;;;3.75;;
15697;SDS011;7949;48.726;9.102;2022-08-16T11:48:07;5.20;;;3.25;;
15697;SDS011;7949;48.726;9.102;2022-08-16T11:50:34;6.38;;;3.30;;
15697;SDS011;7949;48.726;9.102;2022-08-16T11:53:01;7.38;;;3.47;;
15697;SDS011;7949;48.726;9.102;2022-08-16T11:55:30;6.88;;;3.42;;
15697;SDS011;7949;48.726;9.102;2022-08-16T11:57:58;4.07;;;2.95;;
15697;SDS011;7949;48.726;9.102;2022-08-16T12:00:27;9.38;;;3.33;;
15697;SDS011;7949;48.726;9.102;2022-08-16T12:02:55;7.97;;;3.10;;
15697;SDS011;7949;48.726;9.102;2022-08-16T12:05:23;5.43;;;3.30;;
15697;SDS011;7949;48.726;9.102;2022-08-16T12:07:51;8.07;;;3.00;;
15697;SDS011;7949;48.726;9.102;2022-08-16T12:10:19;6.07;;;3.13;;
15697;SDS011;7949;48.726;9.102;2022-08-16T12:12:48;3.33;;;2.78;;
15697;SDS011;7949;48.726;9.102;2022-08-16T12:15:16;5.55;;;3.10;;
15697;SDS011;7949;48.726;9.102;2022-08-16T12:17:45;4.35;;;2.95;;
15697;SDS011;7949;48.726;9.102;2022-08-16T12:20:14;4.53;;;3.03;;
15697;SDS011;7949;48.726;9.102;2022-08-16T12:22:43;4.72;;;3.30;;
15697;SDS011;7949;48.726;9.102;2022-08-16T12:25:13;5.55;;;2.95;;
15697;SDS011;7949;48.726;9.102;2022-08-16T12:27:41;3.63;;;2.95;;
15697;SDS011;7949;48.726;9.102;2022-08-16T12:30:11;5.53;;;3.05;;
15697;SDS011;7949;48.726;9.102;2022-08-16T12:32:40;4.15;;;3.10;;
15697;SDS011;7949;48.726;9.102;2022-08-16T12:35:10;5.60;;;3.20;;
15697;SDS011;7949;48.726;9.102;2022-08-16T12:37:38;3.33;;;2.83;;
15697;SDS011;7949;48.726;9.102;2022-08-16T12:40:06;6.65;;;3.33;;
15697;SDS011;7949;48.726;9.102;2022-08-16T12:42:35;6.05;;;2.80;;
15697;SDS011;7949;48.726;9.102;2022-08-16T12:45:03;5.40;;;2.83;;
15697;SDS011;7949;48.726;9.102;2022-08-16T12:47:31;6.53;;;2.97;;
15697;SDS011;7949;48.726;9.102;2022-08-16T12:50:17;3.72;;;2.65;;
15697;SDS011;7949;48.726;9.102;2022-08-16T12:52:44;5.53;;;2.90;;
15697;SDS011;7949;48.726;9.102;2022-08-16T12:55:11;4.78;;;2.80;;
15697;SDS011;7949;48.726;9.102;2022-08-16T12:57:38;4.50;;;2.83;;
15697;SDS011;7949;48.726;9.102;2022-08-16T13:00:06;3.42;;;2.63;;
15697;SDS011;7949;48.726;9.102;2022-08-16T13:02:37;6.05;;;3.03;;
15697;SDS011;7949;48.726;9.102;2022-08-16T13:05:05;4.95;;;3.13;;
15697;SDS011;7949;48.726;9.102;2022-08-16T13:07:33;3.40;;;2.70;;
15697;SDS011;7949;48.726;9.102;2022-08-16T13:10:00;6.03;;;2.83;;
15697;SDS011;7949;48.726;9.102;2022-08-16T13:12:33;3.95;;;2.63;;
15697;SDS011;7949;48.726;9.102;2022-08-16T13:15:03;4.20;;;2.60;;
15697;SDS011;7949;48.726;9.102;2022-08-16T13:17:32;3.45;;;2.65;;
15697;SDS011;7949;48.726;9.102;2022-08-16T13:20:00;3.28;;;2.85;;
15697;SDS011;7949;48.726;9.102;2022-08-16T13:22:27;5.72;;;3.13;;
15697;SDS011;7949;48.726;9.102;2022-08-16T13:24:55;4.65;;;2.72;;
15697;SDS011;7949;48.726;9.102;2022-08-16T13:27:22;5.43;;;2.30;;
15697;SDS011;7949;48.726;9.102;2022-08-16T13:29:49;2.75;;;2.35;;
15697;SDS011;7949;48.726;9.102;2022-08-16T13:32:16;3.80;;;2.88;;
15697;SDS011;7949;48.726;9.102;2022-08-16T13:34:43;4.07;;;2.72;;
15697;SDS011;7949;48.726;9.102;2022-08-16T13:37:10;4.03;;;2.70;;
15697;SDS011;7949;48.726;9.102;2022-08-16T13:39:37;6.85;;;2.75;;
15697;SDS011;7949;48.726;9.102;2022-08-16T13:42:09;4.80;;;2.33;;
15697;SDS011;7949;48.726;9.102;2022-08-16T13:44:36;3.50;;;2.67;;
15697;SDS011;7949;48.726;9.102;2022-08-16T13:47:04;5.03;;;2.60;;
15697;SDS011;7949;48.726;9.102;2022-08-16T13:49:31;3.38;;;2.25;;
15697;SDS011;7949;48.726;9.102;2022-08-16T13:51:59;3.60;;;2.70;;
15697;SDS011;7949;48.726;9.102;2022-08-16T13:54:27;4.57;;;2.75;;
15697;SDS011;7949;48.726;9.102;2022-08-16T13:56:54;10.02;;;2.78;;
15697;SDS011;7949;48.726;9.102;2022-08-16T13:59:22;2.97;;;2.20;;
15697;SDS011;7949;48.726;9.102;2022-08-16T14:01:50;4.65;;;2.53;;
15697;SDS011;7949;48.726;9.102;2022-08-16T14:04:18;6.07;;;2.40;;
15697;SDS011;7949;48.726;9.102;2022-08-16T14:06:45;3.97;;;2.30;;
15697;SDS011;7949;48.726;9.102;2022-08-16T14:09:12;4.03;;;2.70;;
15697;SDS011;7949;48.726;9.102;2022-08-16T14:11:39;4.00;;;2.10;;
15697;SDS011;7949;48.726;9.102;2022-08-16T14:14:06;6.32;;;2.53;;
15697;SDS011;7949;48.726;9.102;2022-08-16T14:16:35;2.50;;;2.28;;
15697;SDS011;7949;48.726;9.102;2022-08-16T14:19:02;3.92;;;2.20;;
15697;SDS011;7949;48.726;9.102;2022-08-16T14:21:32;4.03;;;2.35;;
15697;SDS011;7949;48.726;9.102;2022-08-16T14:23:59;4.90;;;2.65;;
15697;SDS011;7949;48.726;9.102;2022-08-16T14:26:26;3.97;;;2.30;;
15697;SDS011;7949;48.726;9.102;2022-08-16T14:28:53;8.15;;;2.60;;
15697;SDS011;7949;48.726;9.102;2022-08-16T14:31:20;4.80;;;2.25;;
15697;SDS011;7949;48.726;9.102;2022-08-16T14:33:49;2.90;;;2.20;;
15697;SDS011;7949;48.726;9.102;2022-08-16T14:36:16;5.75;;;2.70;;
15697;SDS011;7949;48.726;9.102;2022-08-16T14:38:43;4.10;;;2.60;;
15697;SDS011;7949;48.726;9.102;2022-08-16T14:41:10;3.30;;;2.70;;
15697;SDS011;7949;48.726;9.102;2022-08-16T14:43:37;3.50;;;2.40;;
15697;SDS011;7949;48.726;9.102;2022-08-16T14:46:04;4.40;;;2.40;;
15697;SDS011;7949;48.726;9.102;2022-08-16T14:48:31;4.28;;;2.92;;
15697;SDS011;7949;48.726;9.102;2022-08-16T14:50:59;6.18;;;2.78;;
15697;SDS011;7949;48.726;9.102;2022-08-16T14:53:26;4.15;;;2.55;;
15697;SDS011;7949;48.726;9.102;2022-08-16T14:55:53;4.63;;;2.50;;
15697;SDS011;7949;48.726;9.102;2022-08-16T14:58:20;5.53;;;2.47;;
15697;SDS011;7949;48.726;9.102;2022-08-16T15:00:48;3.85;;;2.78;;
15697;SDS011;7949;48.726;9.102;2022-08-16T15:03:16;3.15;;;2.30;;
15697;SDS011;7949;48.726;9.102;2022-08-16T15:05:45;3.95;;;2.30;;